createdAt,value
2023-03-16T00:02:10.918Z,82.03
2023-03-16T00:04:51.913Z,82.33
2023-03-16T00:07:22.464Z,82.07
2023-03-16T00:09:55.087Z,82.46
2023-03-16T00:12:23.940Z,82.50
2023-03-16T00:14:56.035Z,82.51
2023-03-16T00:17:24.727Z,82.45
2023-03-16T00:19:58.999Z,82.88
2023-03-16T00:22:54.353Z,83.03
2023-03-16T00:25:26.336Z,82.94
2023-03-16T00:27:56.985Z,83.37
2023-03-16T00:30:28.970Z,83.19
2023-03-16T00:33:07.182Z,83.11
2023-03-16T00:35:53.315Z,83.43
2023-03-16T00:38:32.516Z,83.34
2023-03-16T00:41:14.826Z,83.15
2023-03-16T00:43:53.916Z,83.44
2023-03-16T00:46:28.192Z,83.10
2023-03-16T00:48:57.489Z,83.60
2023-03-16T00:51:48.876Z,83.62
2023-03-16T00:54:23.546Z,83.33
2023-03-16T00:56:59.041Z,83.40
2023-03-16T00:59:39.523Z,83.42
2023-03-16T01:02:10.326Z,83.53
2023-03-16T01:04:51.230Z,83.56
2023-03-16T01:07:19.994Z,83.94
2023-03-16T01:10:12.770Z,83.73
2023-03-16T01:12:45.760Z,83.78
2023-03-16T01:15:18.414Z,83.92
2023-03-16T01:17:47.558Z,84.00
2023-03-16T01:20:23.709Z,84.23
2023-03-16T01:22:55.673Z,84.47
2023-03-16T01:25:27.528Z,84.79
2023-03-16T01:28:08.776Z,84.75
2023-03-16T01:30:37.813Z,84.47
2023-03-16T01:33:08.995Z,84.74
2023-03-16T01:36:13.591Z,84.68
2023-03-16T01:38:50.989Z,84.61
2023-03-16T01:41:27.350Z,84.58
2023-03-16T01:44:05.430Z,84.53
2023-03-16T01:46:59.036Z,84.75
2023-03-16T01:49:36.025Z,84.87
2023-03-16T01:52:24.636Z,84.92
2023-03-16T01:55:08.456Z,84.60
2023-03-16T01:57:49.028Z,84.86
2023-03-16T02:00:50.312Z,84.97
2023-03-16T02:03:23.040Z,84.84
2023-03-16T02:06:23.056Z,85.12
2023-03-16T02:08:55.668Z,84.99
2023-03-16T02:11:25.540Z,85.39
2023-03-16T02:14:08.845Z,85.45
2023-03-16T02:16:53.988Z,85.39
2023-03-16T02:19:43.336Z,85.58
2023-03-16T02:22:19.742Z,85.49
2023-03-16T02:24:57.240Z,85.38
2023-03-16T02:27:52.256Z,85.89
2023-03-16T02:30:23.288Z,85.83
2023-03-16T02:32:54.703Z,85.60
2023-03-16T02:35:23.903Z,85.57
2023-03-16T02:37:55.592Z,85.61
2023-03-16T02:40:25.691Z,85.69
2023-03-16T02:43:04.941Z,85.25
2023-03-16T02:45:40.165Z,85.79
2023-03-16T02:48:22.255Z,85.45
2023-03-16T02:50:54.909Z,85.38
2023-03-16T02:53:30.115Z,84.94
2023-03-16T02:55:59.290Z,84.77
2023-03-16T02:58:27.997Z,84.92
2023-03-16T03:01:07.232Z,84.97
2023-03-16T03:03:36.024Z,84.62
2023-03-16T03:06:04.762Z,84.84
2023-03-16T03:08:33.203Z,84.55
2023-03-16T03:11:07.049Z,84.63
2023-03-16T03:13:38.656Z,84.56
2023-03-16T03:16:10.428Z,84.46
2023-03-16T03:18:39.601Z,84.45
2023-03-16T03:21:17.649Z,84.34
2023-03-16T03:23:49.555Z,84.45
2023-03-16T03:26:20.647Z,83.86
2023-03-16T03:28:52.897Z,84.13
2023-03-16T03:31:23.497Z,83.82
2023-03-16T03:33:54.345Z,83.87
2023-03-16T03:36:23.323Z,83.55
2023-03-16T03:38:57.011Z,83.68
2023-03-16T03:41:26.349Z,83.54
2023-03-16T03:43:54.774Z,83.30
2023-03-16T03:46:23.714Z,83.12
2023-03-16T03:48:52.387Z,83.24
2023-03-16T03:51:34.115Z,83.01
2023-03-16T03:54:03.554Z,82.95
2023-03-16T03:56:35.028Z,83.09
2023-03-16T03:59:03.468Z,83.06
2023-03-16T04:01:31.911Z,82.74
2023-03-16T04:04:04.039Z,82.69
2023-03-16T04:06:33.058Z,82.58
2023-03-16T04:09:01.530Z,82.40
2023-03-16T04:11:30.247Z,82.62
2023-03-16T04:13:58.892Z,82.13
2023-03-16T04:16:28.226Z,82.09
2023-03-16T04:18:57.536Z,82.10
2023-03-16T04:21:29.590Z,82.14
2023-03-16T04:23:58.009Z,82.27
2023-03-16T04:26:26.424Z,82.19
2023-03-16T04:28:57.311Z,82.12
2023-03-16T04:31:25.854Z,82.05
2023-03-16T04:33:56.938Z,82.15
2023-03-16T04:36:25.727Z,81.86
2023-03-16T04:38:54.626Z,81.96
2023-03-16T04:41:23.585Z,81.98
2023-03-16T04:44:01.420Z,81.84
2023-03-16T04:46:33.609Z,81.91
2023-03-16T04:49:04.697Z,81.92
2023-03-16T04:51:33.092Z,81.77
2023-03-16T04:54:06.052Z,81.63
2023-03-16T04:56:35.076Z,81.49
2023-03-16T04:59:08.289Z,81.41
2023-03-16T05:01:44.151Z,81.88
2023-03-16T05:04:18.962Z,81.50
2023-03-16T05:06:54.042Z,81.54
2023-03-16T05:09:26.639Z,81.45
2023-03-16T05:12:10.145Z,81.48
2023-03-16T05:14:44.897Z,81.64
2023-03-16T05:17:15.067Z,81.48
2023-03-16T05:19:44.906Z,81.82
2023-03-16T05:22:14.087Z,82.20
2023-03-16T05:24:45.755Z,82.38
2023-03-16T05:27:14.526Z,82.82
2023-03-16T05:29:48.507Z,83.07
2023-03-16T05:32:19.632Z,83.25
2023-03-16T05:34:49.935Z,83.34
2023-03-16T05:37:19.544Z,83.45
2023-03-16T05:39:48.123Z,84.11
2023-03-16T05:42:21.291Z,84.12
2023-03-16T05:44:50.560Z,84.75
2023-03-16T05:47:20.863Z,85.27
2023-03-16T05:49:53.028Z,85.52
2023-03-16T05:52:22.071Z,85.62
2023-03-16T05:54:54.401Z,86.17
2023-03-16T05:57:28.272Z,86.72
2023-03-16T06:00:11.733Z,87.17
2023-03-16T06:02:41.554Z,87.36
2023-03-16T06:05:11.629Z,87.59
2023-03-16T06:07:40.313Z,88.05
2023-03-16T06:10:13.499Z,88.18
2023-03-16T06:12:45.685Z,88.57
2023-03-16T06:15:20.829Z,88.61
2023-03-16T06:17:49.674Z,88.69
2023-03-16T06:20:24.690Z,88.54
2023-03-16T06:23:04.093Z,88.67
2023-03-16T06:25:32.695Z,88.63
2023-03-16T06:28:04.831Z,88.72
2023-03-16T06:30:33.517Z,88.59
2023-03-16T06:33:02.502Z,88.36
2023-03-16T06:35:31.970Z,88.54
2023-03-16T06:38:04.532Z,88.18
2023-03-16T06:40:41.607Z,88.00
2023-03-16T06:43:21.785Z,87.97
2023-03-16T06:46:16.607Z,87.57
2023-03-16T06:49:11.823Z,87.05
2023-03-16T06:51:53.180Z,86.75
2023-03-16T06:54:27.467Z,86.21
2023-03-16T06:56:59.362Z,85.98
2023-03-16T06:59:33.096Z,85.72
2023-03-16T07:02:32.719Z,85.16
2023-03-16T07:05:01.439Z,84.50
2023-03-16T07:07:34.111Z,83.83
2023-03-16T07:10:29.852Z,82.90
2023-03-16T07:13:07.052Z,82.22
2023-03-16T07:15:43.327Z,81.49
2023-03-16T07:18:18.395Z,80.72
2023-03-16T07:21:04.845Z,79.90
2023-03-16T07:23:37.475Z,79.11
2023-03-16T07:26:21.855Z,78.92
2023-03-16T07:28:53.508Z,78.26
2023-03-16T07:31:23.071Z,77.41
2023-03-16T07:34:00.378Z,76.67
2023-03-16T07:36:35.588Z,75.80
2023-03-16T07:39:14.495Z,74.98
2023-03-16T07:42:03.641Z,75.06
2023-03-16T07:44:35.704Z,74.24
2023-03-16T07:47:05.684Z,73.54
2023-03-16T07:49:38.093Z,72.94
2023-03-16T07:52:08.140Z,72.23
2023-03-16T07:54:40.226Z,72.37
2023-03-16T07:57:09.254Z,71.59
2023-03-16T07:59:39.104Z,71.33
2023-03-16T08:02:16.441Z,70.61
2023-03-16T08:04:46.584Z,69.72
2023-03-16T08:07:18.293Z,69.34
2023-03-16T08:09:49.677Z,67.42
2023-03-16T08:12:18.427Z,67.21
2023-03-16T08:14:49.741Z,66.97
2023-03-16T08:17:18.319Z,66.59
2023-03-16T08:19:48.486Z,66.46
2023-03-16T08:22:26.106Z,66.67
2023-03-16T08:24:58.527Z,65.48
2023-03-16T08:27:29.844Z,64.40
2023-03-16T08:30:09.809Z,63.40
2023-03-16T08:32:40.152Z,62.52
2023-03-16T08:35:14.236Z,62.37
2023-03-16T08:37:54.666Z,62.02
2023-03-16T08:40:29.604Z,62.60
2023-03-16T08:43:06.537Z,62.74
2023-03-16T08:45:35.350Z,62.53
2023-03-16T08:48:08.931Z,62.30
2023-03-16T08:50:37.911Z,61.42
2023-03-16T08:53:06.376Z,60.07
2023-03-16T08:55:38.194Z,59.23
2023-03-16T08:58:10.019Z,57.99
2023-03-16T09:00:40.093Z,57.79
2023-03-16T09:03:08.705Z,57.84
2023-03-16T09:05:38.473Z,56.90
2023-03-16T09:08:07.228Z,57.71
2023-03-16T09:10:37.037Z,55.94
2023-03-16T09:13:08.884Z,56.42
2023-03-16T09:15:41.984Z,56.74
2023-03-16T09:18:14.154Z,55.70
2023-03-16T09:20:43.052Z,56.06
2023-03-16T09:23:17.757Z,56.24
2023-03-16T09:25:53.600Z,55.47
2023-03-16T09:28:31.124Z,54.79
2023-03-16T09:31:07.965Z,53.50
2023-03-16T09:33:40.393Z,53.94
2023-03-16T09:36:12.280Z,54.46
2023-03-16T09:38:42.622Z,54.78
2023-03-16T09:41:38.656Z,55.23
2023-03-16T09:44:25.834Z,54.88
2023-03-16T09:47:01.158Z,53.46
2023-03-16T09:49:57.553Z,52.66
2023-03-16T09:52:32.255Z,53.69
2023-03-16T09:55:38.140Z,52.19
2023-03-16T09:58:21.424Z,52.08
2023-03-16T10:01:06.527Z,52.51
2023-03-16T10:04:23.237Z,51.01
2023-03-16T10:07:17.725Z,51.08
2023-03-16T10:09:53.898Z,51.24
2023-03-16T10:12:32.897Z,49.47
2023-03-16T10:15:19.262Z,49.71
2023-03-16T10:17:56.890Z,49.80
2023-03-16T10:20:46.999Z,50.18
2023-03-16T10:23:29.441Z,49.48
2023-03-16T10:26:19.016Z,49.98
2023-03-16T10:28:53.249Z,48.54
2023-03-16T10:31:28.686Z,49.24
2023-03-16T10:34:17.261Z,49.99
2023-03-16T10:36:53.502Z,49.04
2023-03-16T10:39:22.384Z,48.95
2023-03-16T10:41:59.489Z,49.23
2023-03-16T10:44:38.873Z,49.16
2023-03-16T10:47:08.986Z,49.60
2023-03-16T10:49:46.185Z,48.88
2023-03-16T10:52:29.422Z,48.25
2023-03-16T10:55:02.215Z,48.54
2023-03-16T10:57:43.129Z,49.19
2023-03-16T11:00:25.210Z,48.53
2023-03-16T11:03:05.541Z,48.60
2023-03-16T11:05:36.424Z,48.05
2023-03-16T11:08:20.006Z,47.28
2023-03-16T11:11:03.193Z,44.18
2023-03-16T11:13:35.715Z,43.64
2023-03-16T11:16:14.286Z,43.55
2023-03-16T11:18:50.545Z,42.53
2023-03-16T11:22:08.890Z,42.44
2023-03-16T11:24:55.682Z,41.51
2023-03-16T11:27:41.068Z,41.68
2023-03-16T11:30:36.785Z,41.97
2023-03-16T11:33:14.817Z,41.13
2023-03-16T11:36:03.826Z,40.86
2023-03-16T11:38:47.163Z,41.29
2023-03-16T11:41:40.932Z,41.82
2023-03-16T11:45:00.120Z,41.30
2023-03-16T11:48:23.372Z,41.10
2023-03-16T11:51:14.639Z,41.24
2023-03-16T11:54:29.310Z,40.86
2023-03-16T11:57:19.569Z,40.36
2023-03-16T12:00:10.401Z,40.34
2023-03-16T12:03:27.035Z,41.13
2023-03-16T12:06:23.561Z,41.77
2023-03-16T12:09:19.402Z,39.57
2023-03-16T12:12:06.445Z,39.04
2023-03-16T12:14:53.992Z,38.53
2023-03-16T12:17:30.831Z,38.76
2023-03-16T12:20:18.783Z,39.50
2023-03-16T12:23:03.618Z,39.08
2023-03-16T12:25:46.421Z,38.40
2023-03-16T12:28:28.270Z,37.58
2023-03-16T12:31:44.698Z,38.07
2023-03-16T12:34:37.896Z,37.36
2023-03-16T12:37:30.252Z,37.62
2023-03-16T12:40:08.256Z,37.12
2023-03-16T12:42:42.816Z,36.45
2023-03-16T12:45:32.706Z,37.01
2023-03-16T12:48:20.871Z,37.44
2023-03-16T12:51:03.905Z,38.68
2023-03-16T12:53:59.580Z,39.28
2023-03-16T12:57:00.467Z,38.42
2023-03-16T12:59:43.744Z,37.62
2023-03-16T13:02:18.204Z,37.37
2023-03-16T13:05:23.173Z,38.43
2023-03-16T13:08:10.853Z,37.73
2023-03-16T13:11:02.512Z,37.41
2023-03-16T13:13:36.871Z,37.75
2023-03-16T13:16:28.123Z,36.64
2023-03-16T13:19:03.567Z,37.24
2023-03-16T13:21:46.552Z,37.53
2023-03-16T13:24:32.439Z,36.73
2023-03-16T13:27:35.865Z,38.09
2023-03-16T13:30:34.298Z,37.57
2023-03-16T13:33:22.558Z,37.16
2023-03-16T13:36:08.227Z,37.86
2023-03-16T13:38:37.893Z,37.62
2023-03-16T13:41:11.917Z,36.34
2023-03-16T13:43:45.472Z,36.53
2023-03-16T13:46:21.556Z,35.67
2023-03-16T13:49:02.699Z,36.57
2023-03-16T13:51:43.999Z,36.61
2023-03-16T13:54:19.335Z,36.78
2023-03-16T13:56:50.524Z,36.36
2023-03-16T13:59:31.091Z,36.26
2023-03-16T14:02:04.837Z,37.04
2023-03-16T14:04:43.481Z,36.98
2023-03-16T14:07:21.050Z,36.45
2023-03-16T14:09:57.478Z,35.49
2023-03-16T14:12:26.430Z,35.45
2023-03-16T14:14:55.999Z,35.11
2023-03-16T14:17:31.393Z,34.33
2023-03-16T14:20:05.003Z,35.43
2023-03-16T14:22:38.605Z,34.20
2023-03-16T14:25:08.250Z,34.87
2023-03-16T14:27:39.830Z,34.52
2023-03-16T14:30:18.402Z,33.89
2023-03-16T14:33:10.036Z,34.02
2023-03-16T14:35:44.701Z,33.41
2023-03-16T14:38:37.280Z,33.29
2023-03-16T14:41:31.822Z,33.89
2023-03-16T14:44:32.648Z,33.77
2023-03-16T14:47:05.773Z,33.13
2023-03-16T14:49:43.497Z,32.80
2023-03-16T14:52:37.096Z,32.14
2023-03-16T14:55:34.252Z,32.45
2023-03-16T14:58:23.932Z,31.87
2023-03-16T15:01:02.557Z,31.39
2023-03-16T15:03:45.132Z,31.20
2023-03-16T15:06:17.112Z,32.42
2023-03-16T15:09:05.187Z,33.10
2023-03-16T15:11:34.406Z,33.42
2023-03-16T15:14:37.285Z,34.35
2023-03-16T15:17:06.232Z,34.40
2023-03-16T15:19:38.968Z,34.72
2023-03-16T15:22:07.872Z,35.24
2023-03-16T15:24:40.083Z,35.18
2023-03-16T15:27:45.671Z,35.56
2023-03-16T15:30:20.889Z,35.67
2023-03-16T15:33:13.617Z,35.99
2023-03-16T15:35:49.914Z,35.82
2023-03-16T15:38:33.620Z,36.30
2023-03-16T15:41:11.637Z,36.30
2023-03-16T15:43:40.599Z,36.27
2023-03-16T15:46:11.422Z,36.58
2023-03-16T15:48:40.343Z,37.22
2023-03-16T15:51:24.108Z,36.84
2023-03-16T15:54:15.542Z,37.11
2023-03-16T15:56:54.282Z,37.00
2023-03-16T15:59:24.551Z,37.10
2023-03-16T16:01:55.328Z,37.16
2023-03-16T16:04:25.392Z,37.27
2023-03-16T16:06:55.648Z,37.26
2023-03-16T16:09:24.545Z,37.62
2023-03-16T16:11:53.750Z,37.56
2023-03-16T16:14:27.241Z,37.18
2023-03-16T16:17:01.345Z,37.28
2023-03-16T16:19:33.440Z,37.28
2023-03-16T16:22:10.395Z,37.43
2023-03-16T16:24:39.807Z,38.23
2023-03-16T16:27:12.525Z,38.26
2023-03-16T16:30:11.977Z,37.90
2023-03-16T16:32:42.998Z,38.35
2023-03-16T16:35:23.258Z,38.60
2023-03-16T16:37:52.016Z,38.94
2023-03-16T16:40:33.162Z,38.46
2023-03-16T16:43:11.709Z,38.72
2023-03-16T16:45:51.824Z,38.97
2023-03-16T16:48:34.375Z,39.73
2023-03-16T16:51:11.223Z,40.22
2023-03-16T16:53:43.329Z,40.71
2023-03-16T16:56:19.322Z,41.38
2023-03-16T16:59:07.874Z,41.79
2023-03-16T17:01:36.560Z,42.08
2023-03-16T17:04:17.632Z,42.82
2023-03-16T17:06:52.324Z,43.17
2023-03-16T17:09:21.579Z,43.20
2023-03-16T17:11:56.192Z,43.33
2023-03-16T17:14:28.667Z,43.71
2023-03-16T17:17:03.228Z,44.02
2023-03-16T17:19:33.117Z,44.53
2023-03-16T17:22:22.100Z,44.63
2023-03-16T17:24:59.088Z,45.56
2023-03-16T17:27:33.403Z,46.84
2023-03-16T17:30:03.062Z,46.75
2023-03-16T17:32:35.980Z,46.68
2023-03-16T17:35:29.427Z,46.68
2023-03-16T17:38:01.032Z,46.03
2023-03-16T17:40:30.039Z,45.90
2023-03-16T17:43:01.617Z,46.92
2023-03-16T17:45:31.817Z,47.29
2023-03-16T17:48:00.275Z,47.72
2023-03-16T17:50:30.088Z,47.95
2023-03-16T17:53:00.438Z,48.60
2023-03-16T17:55:29.903Z,49.00
2023-03-16T17:57:59.677Z,49.36
2023-03-16T18:00:32.715Z,49.45
2023-03-16T18:03:20.018Z,49.69
2023-03-16T18:05:48.911Z,50.10
2023-03-16T18:08:20.741Z,50.56
2023-03-16T18:10:55.400Z,50.81
2023-03-16T18:13:31.749Z,51.44
2023-03-16T18:16:02.626Z,51.15
2023-03-16T18:18:39.732Z,50.78
2023-03-16T18:21:22.131Z,50.12
2023-03-16T18:23:53.961Z,49.88
2023-03-16T18:26:24.168Z,49.34
2023-03-16T18:28:53.723Z,49.15
2023-03-16T18:31:27.739Z,49.03
2023-03-16T18:34:01.561Z,49.04
2023-03-16T18:36:33.684Z,49.28
2023-03-16T18:39:06.689Z,48.59
2023-03-16T18:41:36.213Z,48.81
2023-03-16T18:44:18.744Z,49.29
2023-03-16T18:46:52.307Z,48.77
2023-03-16T18:49:29.990Z,48.82
2023-03-16T18:51:59.263Z,48.69
2023-03-16T18:54:35.730Z,48.64
2023-03-16T18:57:14.612Z,48.94
2023-03-16T18:59:53.112Z,48.76
2023-03-16T19:02:39.042Z,48.55
2023-03-16T19:05:20.960Z,48.79
2023-03-16T19:07:53.076Z,48.93
2023-03-16T19:10:47.188Z,48.55
2023-03-16T19:13:20.818Z,48.33
2023-03-16T19:15:51.252Z,48.35
2023-03-16T19:18:23.209Z,48.17
2023-03-16T19:20:55.988Z,48.14
2023-03-16T19:23:37.254Z,48.17
2023-03-16T19:26:09.875Z,48.19
2023-03-16T19:28:40.294Z,48.39
2023-03-16T19:31:30.007Z,48.44
2023-03-16T19:34:33.581Z,48.47
2023-03-16T19:37:15.257Z,48.55
2023-03-16T19:39:48.813Z,48.54
2023-03-16T19:42:30.488Z,48.56
2023-03-16T19:45:02.583Z,48.64
2023-03-16T19:47:36.020Z,48.76
2023-03-16T19:50:28.250Z,48.84
2023-03-16T19:53:00.461Z,49.02
2023-03-16T19:55:38.704Z,49.22
2023-03-16T19:58:34.017Z,49.27
2023-03-16T20:01:22.868Z,49.43
2023-03-16T20:04:10.157Z,49.51
2023-03-16T20:06:38.952Z,49.68
2023-03-16T20:09:11.392Z,49.71
2023-03-16T20:11:41.550Z,49.87
2023-03-16T20:14:27.388Z,49.93
2023-03-16T20:17:03.750Z,50.00
2023-03-16T20:19:32.711Z,50.08
2023-03-16T20:22:07.287Z,50.17
2023-03-16T20:25:09.771Z,50.33
2023-03-16T20:27:39.204Z,50.69
2023-03-16T20:30:35.884Z,50.71
2023-03-16T20:33:17.132Z,50.95
2023-03-16T20:35:47.071Z,51.08
2023-03-16T20:38:20.361Z,51.34
2023-03-16T20:40:52.757Z,51.31
2023-03-16T20:43:26.565Z,51.50
2023-03-16T20:46:04.045Z,51.63
2023-03-16T20:48:35.284Z,51.91
2023-03-16T20:51:13.155Z,52.19
2023-03-16T20:53:57.364Z,52.38
2023-03-16T20:56:28.729Z,52.52
2023-03-16T20:58:57.382Z,52.77
2023-03-16T21:01:27.080Z,52.96
2023-03-16T21:03:57.253Z,53.08
2023-03-16T21:06:32.061Z,53.52
2023-03-16T21:09:03.557Z,53.79
2023-03-16T21:11:37.550Z,53.87
2023-03-16T21:14:14.048Z,54.00
2023-03-16T21:16:58.188Z,54.24
2023-03-16T21:19:30.458Z,54.20
2023-03-16T21:22:02.818Z,54.36
2023-03-16T21:24:31.288Z,54.55
2023-03-16T21:27:02.360Z,54.65
2023-03-16T21:29:30.697Z,54.65
2023-03-16T21:31:58.891Z,54.93
2023-03-16T21:34:33.968Z,54.99
2023-03-16T21:37:02.846Z,55.28
2023-03-16T21:39:31.764Z,55.12
2023-03-16T21:42:00.849Z,55.18
2023-03-16T21:44:29.173Z,55.55
2023-03-16T21:46:57.524Z,55.46
2023-03-16T21:49:26.028Z,55.78
2023-03-16T21:51:54.756Z,55.88
2023-03-16T21:54:23.190Z,55.94
2023-03-16T21:56:51.703Z,55.96
2023-03-16T21:59:22.629Z,56.09
2023-03-16T22:02:01.621Z,56.21
2023-03-16T22:04:31.256Z,56.06
2023-03-16T22:07:00.092Z,56.15
2023-03-16T22:09:30.552Z,56.21
2023-03-16T22:11:58.929Z,56.24
2023-03-16T22:14:27.389Z,56.64
2023-03-16T22:16:56.799Z,56.66
2023-03-16T22:19:27.457Z,56.77
2023-03-16T22:21:59.294Z,56.66
2023-03-16T22:24:34.868Z,56.79
2023-03-16T22:27:04.546Z,56.75
2023-03-16T22:29:36.744Z,56.70
2023-03-16T22:32:15.022Z,56.79
2023-03-16T22:34:53.828Z,56.56
2023-03-16T22:37:27.388Z,56.79
2023-03-16T22:39:58.649Z,56.32
2023-03-16T22:42:29.001Z,56.32
2023-03-16T22:44:58.588Z,56.04
2023-03-16T22:47:33.672Z,56.18
2023-03-16T22:50:02.210Z,56.05
2023-03-16T22:52:33.655Z,55.96
2023-03-16T22:55:04.888Z,55.87
2023-03-16T22:57:33.443Z,55.60
2023-03-16T23:00:11.440Z,55.80
2023-03-16T23:02:42.973Z,55.49
2023-03-16T23:05:27.743Z,55.32
2023-03-16T23:08:00.085Z,55.30
2023-03-16T23:10:29.781Z,55.18
2023-03-16T23:12:59.732Z,55.11
2023-03-16T23:15:31.100Z,54.80
2023-03-16T23:17:59.882Z,54.82
2023-03-16T23:20:32.017Z,54.78
2023-03-16T23:23:00.966Z,54.66
2023-03-16T23:25:30.384Z,54.40
2023-03-16T23:28:01.879Z,54.62
2023-03-16T23:30:31.201Z,54.74
2023-03-16T23:33:00.307Z,54.51
2023-03-16T23:35:31.234Z,54.40
2023-03-16T23:37:59.966Z,54.62
2023-03-16T23:40:29.810Z,54.87
2023-03-16T23:43:00.972Z,54.76
2023-03-16T23:45:37.418Z,55.16
2023-03-16T23:48:08.060Z,55.29
2023-03-16T23:50:37.978Z,55.39
2023-03-16T23:53:13.063Z,55.66
2023-03-16T23:55:42.757Z,55.67
2023-03-16T23:58:12.828Z,55.71
